Time;durP1;ratioP1;P1;durP2;ratioP2;P2;SDS_P1;SDS_P2;PMS_P1;PMS_P2;Temp;Humidity;BMP_temperature;BMP_pressure;BME280_temperature;BME280_humidity;BME280_pressure;Samples;Min_cycle;Max_cycle;Signal;HPM_P1;HPM_P2
2023/07/30 00:00:34;;;;;;;3.00;2.50;;;;;;;;;;6249245;28;20183;-68
2023/07/30 00:03:35;;;;;;;3.73;2.97;;;;;;;;;;6247458;28;20190;-67
2023/07/30 00:06:36;;;;;;;2.57;2.37;;;;;;;;;;6249906;28;20244;-68
2023/07/30 00:09:37;;;;;;;3.17;2.83;;;;;;;;;;6246810;28;20251;-68
2023/07/30 00:12:40;;;;;;;3.93;2.53;;;;;;;;;;6260675;28;20210;-68
2023/07/30 00:15:41;;;;;;;3.10;2.70;;;;;;;;;;6251858;28;20183;-67
2023/07/30 00:18:42;;;;;;;3.90;2.80;;;;;;;;;;6262932;28;20217;-68
2023/07/30 00:21:46;;;;;;;3.77;3.33;;;;;;;;;;6266547;28;20245;-68
2023/07/30 00:24:47;;;;;;;4.80;3.17;;;;;;;;;;6266541;28;20202;-68
2023/07/30 00:27:48;;;;;;;3.90;2.63;;;;;;;;;;6247689;28;20199;-67
2023/07/30 00:30:49;;;;;;;3.27;2.70;;;;;;;;;;6250612;28;20354;-67
2023/07/30 00:33:50;;;;;;;3.43;2.93;;;;;;;;;;6248882;28;20285;-67
2023/07/30 00:36:51;;;;;;;3.50;3.20;;;;;;;;;;6277706;28;20190;-67
2023/07/30 00:39:52;;;;;;;3.50;3.20;;;;;;;;;;6251026;28;20195;-67
2023/07/30 00:42:53;;;;;;;3.53;3.00;;;;;;;;;;6278968;28;20287;-67
2023/07/30 00:45:54;;;;;;;5.13;3.17;;;;;;;;;;6267680;28;20517;-67
2023/07/30 00:48:55;;;;;;;4.10;3.00;;;;;;;;;;6246964;28;20192;-67
2023/07/30 00:51:57;;;;;;;3.87;3.47;;;;;;;;;;6269587;28;20205;-68
2023/07/30 00:54:58;;;;;;;3.37;2.70;;;;;;;;;;6277404;28;20222;-67
2023/07/30 00:57:59;;;;;;;4.10;2.60;;;;;;;;;;6264965;28;20266;-67
2023/07/30 01:01:00;;;;;;;2.47;2.27;;;;;;;;;;6255218;28;20189;-67
2023/07/30 01:04:01;;;;;;;4.00;2.90;;;;;;;;;;6250277;28;20251;-67
2023/07/30 01:07:02;;;;;;;4.57;2.87;;;;;;;;;;6248685;28;20198;-67
2023/07/30 01:10:04;;;;;;;4.20;2.80;;;;;;;;;;6257381;28;20194;-67
2023/07/30 01:13:06;;;;;;;4.73;3.60;;;;;;;;;;6250032;28;20300;-67
2023/07/30 01:16:07;;;;;;;4.10;2.87;;;;;;;;;;6248816;28;20206;-67
2023/07/30 01:19:08;;;;;;;2.90;2.70;;;;;;;;;;6259342;28;20222;-67
2023/07/30 01:22:09;;;;;;;4.27;3.13;;;;;;;;;;6249159;28;20190;-67
2023/07/30 01:25:11;;;;;;;6.60;3.50;;;;;;;;;;6247364;28;20199;-67
2023/07/30 01:28:13;;;;;;;2.60;2.40;;;;;;;;;;6267183;28;20225;-67
2023/07/30 01:31:15;;;;;;;3.43;2.77;;;;;;;;;;6269806;28;20234;-67
2023/07/30 01:34:16;;;;;;;5.80;3.50;;;;;;;;;;6247243;28;20215;-67
2023/07/30 01:37:17;;;;;;;5.83;2.30;;;;;;;;;;6272091;28;20183;-67
2023/07/30 01:40:19;;;;;;;5.57;2.60;;;;;;;;;;6253437;28;20187;-67
2023/07/30 01:43:20;;;;;;;3.20;2.50;;;;;;;;;;6253742;28;20195;-67
2023/07/30 01:46:21;;;;;;;6.60;2.83;;;;;;;;;;6246237;28;20224;-67
2023/07/30 01:49:22;;;;;;;4.13;2.53;;;;;;;;;;6245998;28;20308;-67
2023/07/30 01:52:23;;;;;;;3.23;2.33;;;;;;;;;;6246762;28;20251;-67
2023/07/30 01:55:24;;;;;;;4.17;2.83;;;;;;;;;;6245504;28;20190;-67
2023/07/30 01:58:25;;;;;;;6.60;2.63;;;;;;;;;;6255373;28;20197;-67
2023/07/30 02:01:26;;;;;;;3.60;2.73;;;;;;;;;;6249441;28;20185;-67
2023/07/30 02:04:27;;;;;;;10.40;3.20;;;;;;;;;;6275785;28;20192;-67
2023/07/30 02:07:28;;;;;;;3.37;2.63;;;;;;;;;;6255462;28;20197;-67
2023/07/30 02:10:29;;;;;;;6.67;2.87;;;;;;;;;;6246961;28;20201;-67
2023/07/30 02:13:30;;;;;;;4.10;2.70;;;;;;;;;;6269671;28;20218;-67
2023/07/30 02:16:31;;;;;;;5.33;2.93;;;;;;;;;;6262428;28;20228;-67
2023/07/30 02:19:32;;;;;;;4.27;2.90;;;;;;;;;;6263366;28;20189;-67
2023/07/30 02:22:33;;;;;;;3.40;2.50;;;;;;;;;;6246094;28;20182;-67
2023/07/30 02:25:34;;;;;;;3.17;2.50;;;;;;;;;;6246734;28;20187;-67
2023/07/30 02:28:35;;;;;;;4.80;2.20;;;;;;;;;;6248993;28;20182;-67
2023/07/30 02:31:36;;;;;;;6.47;2.37;;;;;;;;;;6246234;28;20325;-67
2023/07/30 02:34:37;;;;;;;4.07;2.77;;;;;;;;;;6254639;28;20206;-67
2023/07/30 02:37:38;;;;;;;3.10;2.37;;;;;;;;;;6249802;28;20191;-67
2023/07/30 02:40:39;;;;;;;3.00;2.43;;;;;;;;;;6242004;28;20190;-67
2023/07/30 02:43:40;;;;;;;4.63;2.60;;;;;;;;;;6247036;28;20193;-67
2023/07/30 02:46:42;;;;;;;3.73;2.93;;;;;;;;;;6252923;28;20186;-67
2023/07/30 02:49:43;;;;;;;3.07;2.43;;;;;;;;;;6237020;28;20201;-67
2023/07/30 02:52:44;;;;;;;3.87;2.93;;;;;;;;;;6245090;28;20219;-67
2023/07/30 02:55:45;;;;;;;3.53;2.73;;;;;;;;;;6245358;28;20213;-67
2023/07/30 02:58:46;;;;;;;3.40;2.20;;;;;;;;;;6246535;28;20244;-67
2023/07/30 03:01:47;;;;;;;3.67;2.23;;;;;;;;;;6263564;28;20194;-67
2023/07/30 03:04:48;;;;;;;4.53;3.07;;;;;;;;;;6255018;28;20193;-67
2023/07/30 03:07:49;;;;;;;2.87;2.63;;;;;;;;;;6247818;28;20200;-67
2023/07/30 03:10:50;;;;;;;3.13;2.80;;;;;;;;;;6271058;28;20197;-67
2023/07/30 03:13:51;;;;;;;4.03;2.70;;;;;;;;;;6240860;28;20221;-67
2023/07/30 03:16:52;;;;;;;5.17;3.13;;;;;;;;;;6228583;28;20252;-67
2023/07/30 03:19:53;;;;;;;5.43;3.13;;;;;;;;;;6275605;28;20183;-67
2023/07/30 03:22:54;;;;;;;6.67;3.10;;;;;;;;;;6250476;28;20202;-67
2023/07/30 03:25:55;;;;;;;3.23;2.90;;;;;;;;;;6244397;28;20197;-67
2023/07/30 03:28:56;;;;;;;3.10;2.73;;;;;;;;;;6248129;28;20212;-67
2023/07/30 03:31:57;;;;;;;3.57;2.83;;;;;;;;;;6255534;28;20272;-67
2023/07/30 03:34:58;;;;;;;6.83;3.10;;;;;;;;;;6270871;28;20221;-67
2023/07/30 03:37:59;;;;;;;7.37;3.00;;;;;;;;;;6245810;28;20185;-67
2023/07/30 03:41:00;;;;;;;5.23;3.00;;;;;;;;;;6248903;28;20192;-67
2023/07/30 03:44:01;;;;;;;3.30;3.00;;;;;;;;;;6242375;28;20205;-67
2023/07/30 03:47:02;;;;;;;5.00;3.10;;;;;;;;;;6247308;28;20201;-67
2023/07/30 03:50:04;;;;;;;4.83;3.37;;;;;;;;;;6270271;28;20193;-67
2023/07/30 03:53:05;;;;;;;3.73;3.33;;;;;;;;;;6269615;28;20247;-67
2023/07/30 03:56:06;;;;;;;3.50;3.20;;;;;;;;;;6249538;28;20211;-67
2023/07/30 03:59:07;;;;;;;5.57;4.00;;;;;;;;;;6250728;28;20193;-67
2023/07/30 04:02:08;;;;;;;7.20;3.80;;;;;;;;;;6251659;28;20198;-67
2023/07/30 04:05:09;;;;;;;4.90;3.97;;;;;;;;;;6251680;28;20191;-67
2023/07/30 04:08:10;;;;;;;5.33;3.47;;;;;;;;;;6247681;28;20205;-67
2023/07/30 04:11:11;;;;;;;5.87;3.23;;;;;;;;;;6244801;28;20205;-67
2023/07/30 04:14:12;;;;;;;4.10;3.70;;;;;;;;;;6236797;28;20297;-68
2023/07/30 04:17:13;;;;;;;7.50;3.50;;;;;;;;;;6260988;28;20187;-68
2023/07/30 04:20:14;;;;;;;5.83;3.43;;;;;;;;;;6249980;28;20197;-68
2023/07/30 04:23:15;;;;;;;4.43;3.50;;;;;;;;;;6272418;28;20201;-68
2023/07/30 04:26:16;;;;;;;8.53;4.10;;;;;;;;;;6251509;28;20194;-68
2023/07/30 04:29:17;;;;;;;4.60;3.33;;;;;;;;;;6285418;28;20195;-68
2023/07/30 04:32:18;;;;;;;6.53;3.63;;;;;;;;;;6251105;28;20198;-68
2023/07/30 04:35:20;;;;;;;8.07;4.27;;;;;;;;;;6242667;28;20227;-67
2023/07/30 04:38:21;;;;;;;7.80;3.47;;;;;;;;;;6266153;28;20190;-68
2023/07/30 04:41:22;;;;;;;6.60;3.97;;;;;;;;;;6250070;28;20209;-68
2023/07/30 04:44:23;;;;;;;5.43;4.00;;;;;;;;;;6255459;28;20201;-68
2023/07/30 04:47:24;;;;;;;4.57;3.80;;;;;;;;;;6254989;28;20202;-67
2023/07/30 04:50:25;;;;;;;3.77;3.47;;;;;;;;;;6251384;28;20189;-68
2023/07/30 04:53:26;;;;;;;4.57;3.57;;;;;;;;;;6260545;28;20214;-67
2023/07/30 04:56:27;;;;;;;7.23;4.57;;;;;;;;;;6249925;28;20194;-67
2023/07/30 04:59:28;;;;;;;6.73;4.20;;;;;;;;;;6271775;28;20280;-67
2023/07/30 05:02:30;;;;;;;5.60;3.80;;;;;;;;;;6253117;28;20183;-67
2023/07/30 05:05:31;;;;;;;5.13;4.47;;;;;;;;;;6248014;28;20214;-67
2023/07/30 05:08:32;;;;;;;8.13;4.30;;;;;;;;;;6245983;28;20190;-67
2023/07/30 05:11:33;;;;;;;3.97;3.50;;;;;;;;;;6249139;28;20225;-67
2023/07/30 05:14:34;;;;;;;3.83;3.37;;;;;;;;;;6238939;28;20250;-67
2023/07/30 05:17:35;;;;;;;5.43;4.23;;;;;;;;;;6275775;28;20191;-67
2023/07/30 05:20:36;;;;;;;5.33;4.03;;;;;;;;;;6261126;28;20218;-67
2023/07/30 05:23:37;;;;;;;8.23;3.97;;;;;;;;;;6276549;28;20200;-67
2023/07/30 05:26:38;;;;;;;6.47;4.13;;;;;;;;;;6248413;28;20193;-67
2023/07/30 05:29:39;;;;;;;4.87;3.70;;;;;;;;;;6252128;28;20226;-67
2023/07/30 05:32:40;;;;;;;5.53;3.77;;;;;;;;;;6254158;28;20320;-67
2023/07/30 05:35:41;;;;;;;4.67;3.50;;;;;;;;;;6252692;28;20198;-67
2023/07/30 05:38:42;;;;;;;4.60;4.20;;;;;;;;;;6264337;28;20235;-67
2023/07/30 05:41:43;;;;;;;4.97;3.70;;;;;;;;;;6250895;28;20238;-67
2023/07/30 05:44:44;;;;;;;6.90;3.63;;;;;;;;;;6251207;28;20181;-67
2023/07/30 05:47:45;;;;;;;4.30;3.90;;;;;;;;;;6246905;28;20208;-67
2023/07/30 05:50:46;;;;;;;5.27;3.40;;;;;;;;;;6273342;28;20206;-67
2023/07/30 05:53:47;;;;;;;7.13;3.80;;;;;;;;;;6242248;28;20217;-67
2023/07/30 05:56:48;;;;;;;5.20;3.80;;;;;;;;;;6238827;28;20194;-67
2023/07/30 05:59:49;;;;;;;10.83;4.27;;;;;;;;;;6260284;28;20211;-67
2023/07/30 06:02:50;;;;;;;6.40;3.80;;;;;;;;;;6246475;28;20191;-67
2023/07/30 06:05:51;;;;;;;4.33;3.53;;;;;;;;;;6261855;28;20191;-67
2023/07/30 06:08:52;;;;;;;4.27;3.43;;;;;;;;;;6269898;28;20202;-67
2023/07/30 06:11:53;;;;;;;6.03;3.83;;;;;;;;;;6244635;28;20348;-67
2023/07/30 06:14:54;;;;;;;3.90;3.17;;;;;;;;;;6248358;28;20239;-67
2023/07/30 06:17:55;;;;;;;5.03;3.40;;;;;;;;;;6252718;28;20306;-67
2023/07/30 06:20:57;;;;;;;5.23;3.77;;;;;;;;;;6263486;28;20199;-67
2023/07/30 06:23:58;;;;;;;5.37;3.40;;;;;;;;;;6246568;28;20198;-67
2023/07/30 06:26:59;;;;;;;3.50;3.13;;;;;;;;;;6247227;28;20200;-68
2023/07/30 06:30:00;;;;;;;5.10;3.07;;;;;;;;;;6238032;28;20238;-68
2023/07/30 06:33:01;;;;;;;6.43;3.80;;;;;;;;;;6249291;28;20229;-68
2023/07/30 06:36:02;;;;;;;5.97;3.50;;;;;;;;;;6265808;28;20251;-68
2023/07/30 06:39:03;;;;;;;4.73;4.13;;;;;;;;;;6270723;28;20185;-68
2023/07/30 06:42:04;;;;;;;6.50;3.80;;;;;;;;;;6275633;28;20197;-68
2023/07/30 06:45:05;;;;;;;4.80;3.67;;;;;;;;;;6267059;28;20255;-68
2023/07/30 06:48:06;;;;;;;5.00;4.20;;;;;;;;;;6245711;28;20194;-67
2023/07/30 06:51:08;;;;;;;4.07;3.77;;;;;;;;;;6247697;28;20192;-67
2023/07/30 06:54:09;;;;;;;6.13;3.90;;;;;;;;;;6260926;28;20293;-67
2023/07/30 06:57:10;;;;;;;3.73;3.40;;;;;;;;;;6248152;28;20197;-67
2023/07/30 07:00:11;;;;;;;5.77;4.10;;;;;;;;;;6244464;28;20202;-67
2023/07/30 07:03:12;;;;;;;4.67;4.27;;;;;;;;;;6267817;28;20202;-67
2023/07/30 07:06:13;;;;;;;6.83;4.03;;;;;;;;;;6252734;28;20197;-68
2023/07/30 07:09:14;;;;;;;3.67;3.37;;;;;;;;;;6270697;28;20236;-68
2023/07/30 07:12:15;;;;;;;4.63;3.83;;;;;;;;;;6246773;28;20286;-68
2023/07/30 07:15:16;;;;;;;4.20;3.80;;;;;;;;;;6264746;28;20225;-68
2023/07/30 07:18:17;;;;;;;4.10;3.70;;;;;;;;;;6259842;28;20220;-68
2023/07/30 07:21:20;;;;;;;4.27;3.73;;;;;;;;;;6245122;28;20198;-68
2023/07/30 07:24:21;;;;;;;3.70;3.40;;;;;;;;;;6242442;28;20196;-68
2023/07/30 07:27:25;;;;;;;4.90;3.33;;;;;;;;;;6249798;28;20194;-68
2023/07/30 07:30:26;;;;;;;6.63;3.73;;;;;;;;;;6245544;28;20237;-67
2023/07/30 07:33:27;;;;;;;3.80;3.27;;;;;;;;;;6244605;28;20287;-67
2023/07/30 07:36:28;;;;;;;3.40;3.10;;;;;;;;;;6264242;28;20192;-68
2023/07/30 07:39:29;;;;;;;3.27;2.97;;;;;;;;;;6245155;28;20198;-68
2023/07/30 07:42:30;;;;;;;3.70;3.40;;;;;;;;;;6238931;28;20188;-68
2023/07/30 07:45:31;;;;;;;3.67;3.37;;;;;;;;;;6245694;28;20255;-67
2023/07/30 07:48:32;;;;;;;3.77;3.47;;;;;;;;;;6252510;28;20243;-67
2023/07/30 07:51:33;;;;;;;4.47;3.73;;;;;;;;;;6250654;28;20193;-67
2023/07/30 07:54:35;;;;;;;4.60;3.40;;;;;;;;;;6250845;28;20240;-67
2023/07/30 07:57:36;;;;;;;4.20;3.77;;;;;;;;;;6252590;28;20193;-68
2023/07/30 08:00:37;;;;;;;4.33;3.63;;;;;;;;;;6247500;28;20284;-68
2023/07/30 08:03:38;;;;;;;3.97;3.23;;;;;;;;;;6245575;28;20201;-68
2023/07/30 08:06:39;;;;;;;4.57;3.77;;;;;;;;;;6255740;28;20190;-68
2023/07/30 08:09:40;;;;;;;4.10;3.70;;;;;;;;;;6242676;28;20239;-68
2023/07/30 08:12:41;;;;;;;3.67;3.33;;;;;;;;;;6273320;28;20193;-68
2023/07/30 08:15:42;;;;;;;3.40;3.20;;;;;;;;;;6249676;28;20327;-68
2023/07/30 08:18:43;;;;;;;3.53;3.23;;;;;;;;;;6263086;28;20186;-68
2023/07/30 08:21:44;;;;;;;5.17;3.70;;;;;;;;;;6274810;28;20186;-68
2023/07/30 08:24:45;;;;;;;3.83;3.40;;;;;;;;;;6241511;28;20289;-68
2023/07/30 08:27:46;;;;;;;3.87;3.57;;;;;;;;;;6249027;28;20197;-68
2023/07/30 08:30:48;;;;;;;4.00;3.37;;;;;;;;;;6272771;28;20241;-68
2023/07/30 08:33:49;;;;;;;3.93;3.60;;;;;;;;;;6253012;28;20222;-68
2023/07/30 08:36:50;;;;;;;3.97;3.10;;;;;;;;;;6256388;28;20188;-68
2023/07/30 08:39:51;;;;;;;3.40;3.10;;;;;;;;;;6264337;28;20185;-68
2023/07/30 08:42:52;;;;;;;4.10;3.60;;;;;;;;;;6247701;28;20196;-68
2023/07/30 08:45:53;;;;;;;3.83;3.50;;;;;;;;;;6242975;28;20201;-68
2023/07/30 08:48:57;;;;;;;3.50;3.20;;;;;;;;;;6249806;28;20186;-68
2023/07/30 08:51:58;;;;;;;3.60;3.30;;;;;;;;;;6247912;28;20222;-68
2023/07/30 08:55:01;;;;;;;3.70;3.40;;;;;;;;;;6254134;28;20212;-68
2023/07/30 08:58:02;;;;;;;4.27;3.30;;;;;;;;;;6274090;28;20281;-68
2023/07/30 09:01:09;;;;;;;3.63;3.33;;;;;;;;;;6250573;28;20194;-67
2023/07/30 09:04:10;;;;;;;4.07;3.77;;;;;;;;;;6263109;28;20191;-67
2023/07/30 09:07:14;;;;;;;3.90;3.60;;;;;;;;;;6264748;28;20205;-67
2023/07/30 09:10:15;;;;;;;3.50;3.20;;;;;;;;;;6257528;28;20314;-67
2023/07/30 09:13:23;;;;;;;3.77;3.07;;;;;;;;;;6246729;28;20222;-67
2023/07/30 09:16:27;;;;;;;4.20;2.97;;;;;;;;;;6247816;28;20185;-67
2023/07/30 09:19:28;;;;;;;3.20;2.90;;;;;;;;;;6248153;28;20242;-67
2023/07/30 09:22:31;;;;;;;3.50;3.20;;;;;;;;;;6266098;28;20186;-67
2023/07/30 09:25:32;;;;;;;3.30;2.97;;;;;;;;;;6251180;28;20201;-67
2023/07/30 09:28:34;;;;;;;4.90;3.40;;;;;;;;;;6265413;28;20202;-67
2023/07/30 09:31:43;;;;;;;4.37;3.40;;;;;;;;;;6250590;28;20238;-67
2023/07/30 09:34:48;;;;;;;3.93;3.10;;;;;;;;;;6263677;28;20237;-67
2023/07/30 09:37:49;;;;;;;3.77;3.00;;;;;;;;;;6239098;28;20191;-68
2023/07/30 09:40:50;;;;;;;3.40;3.10;;;;;;;;;;6240586;28;20186;-67
2023/07/30 09:43:58;;;;;;;3.07;2.73;;;;;;;;;;6264635;28;20277;-67
2023/07/30 09:47:04;;;;;;;3.07;2.80;;;;;;;;;;6253341;28;20197;-67
2023/07/30 09:50:06;;;;;;;3.70;3.10;;;;;;;;;;6266866;28;20326;-67
2023/07/30 09:53:07;;;;;;;4.50;2.60;;;;;;;;;;6282331;28;20248;-67
2023/07/30 09:56:08;;;;;;;3.20;2.57;;;;;;;;;;6263430;28;20193;-67
2023/07/30 09:59:10;;;;;;;2.63;2.43;;;;;;;;;;6263671;28;20190;-67
2023/07/30 10:02:11;;;;;;;2.70;2.40;;;;;;;;;;6255035;28;20178;-67
2023/07/30 10:05:19;;;;;;;2.80;2.60;;;;;;;;;;6270204;28;20197;-67
2023/07/30 10:08:22;;;;;;;3.00;2.70;;;;;;;;;;6256873;28;20190;-67
2023/07/30 10:11:23;;;;;;;2.90;2.70;;;;;;;;;;6257276;28;20217;-67
2023/07/30 10:14:25;;;;;;;3.03;2.43;;;;;;;;;;6230898;28;20217;-67
2023/07/30 10:17:28;;;;;;;2.73;2.50;;;;;;;;;;6255890;28;20189;-67
2023/07/30 10:20:29;;;;;;;2.50;2.30;;;;;;;;;;6261931;28;20194;-67
2023/07/30 10:23:33;;;;;;;2.50;2.30;;;;;;;;;;6250888;28;20194;-67
2023/07/30 10:26:36;;;;;;;2.23;2.03;;;;;;;;;;6266295;28;20188;-67
2023/07/30 10:29:41;;;;;;;2.97;2.30;;;;;;;;;;6263870;28;20226;-67
2023/07/30 10:32:45;;;;;;;2.17;2.07;;;;;;;;;;6251196;28;20183;-67
2023/07/30 10:35:47;;;;;;;3.00;2.23;;;;;;;;;;6258043;28;20241;-67
2023/07/30 10:38:48;;;;;;;2.10;1.90;;;;;;;;;;6272580;28;20209;-67
2023/07/30 10:41:50;;;;;;;2.30;2.10;;;;;;;;;;6245833;28;20277;-67
2023/07/30 10:44:51;;;;;;;3.47;2.17;;;;;;;;;;6260976;28;20244;-67
2023/07/30 10:47:52;;;;;;;5.03;2.27;;;;;;;;;;6246684;28;20200;-67
2023/07/30 10:50:53;;;;;;;2.70;2.20;;;;;;;;;;6251183;28;20294;-67
2023/07/30 10:53:54;;;;;;;3.10;2.13;;;;;;;;;;6243758;28;20272;-66
2023/07/30 10:56:55;;;;;;;1.93;1.80;;;;;;;;;;6260283;28;20191;-67
2023/07/30 10:59:57;;;;;;;2.10;1.97;;;;;;;;;;6246259;28;20189;-67
2023/07/30 11:02:58;;;;;;;2.40;1.90;;;;;;;;;;6245285;28;20343;-67
2023/07/30 11:05:59;;;;;;;2.73;2.10;;;;;;;;;;6249380;28;20204;-67
2023/07/30 11:09:00;;;;;;;2.23;1.90;;;;;;;;;;6245119;28;20285;-67
2023/07/30 11:12:02;;;;;;;1.73;1.63;;;;;;;;;;6244993;28;20190;-67
2023/07/30 11:15:03;;;;;;;2.47;2.23;;;;;;;;;;6243253;28;20312;-67
2023/07/30 11:18:04;;;;;;;2.40;1.90;;;;;;;;;;6248042;28;20187;-67
2023/07/30 11:21:10;;;;;;;2.83;2.17;;;;;;;;;;6250984;28;20288;-67
2023/07/30 11:24:11;;;;;;;2.40;1.90;;;;;;;;;;6257794;28;20362;-66
2023/07/30 11:27:12;;;;;;;2.43;2.23;;;;;;;;;;6238549;28;20206;-67
2023/07/30 11:30:13;;;;;;;2.10;1.93;;;;;;;;;;6257528;28;20319;-67
2023/07/30 11:33:15;;;;;;;2.20;1.93;;;;;;;;;;6239709;28;20300;-66
2023/07/30 11:36:18;;;;;;;2.30;2.10;;;;;;;;;;6259230;28;20242;-66
2023/07/30 11:39:19;;;;;;;2.80;2.17;;;;;;;;;;6246584;28;20197;-66
2023/07/30 11:42:20;;;;;;;3.07;1.83;;;;;;;;;;6261506;28;20187;-66
2023/07/30 11:45:22;;;;;;;2.10;1.90;;;;;;;;;;6248921;28;20201;-67
2023/07/30 11:48:24;;;;;;;2.40;2.20;;;;;;;;;;6251056;28;20201;-67
2023/07/30 11:51:27;;;;;;;2.40;1.83;;;;;;;;;;6238169;28;20190;-67
2023/07/30 11:54:28;;;;;;;3.00;1.67;;;;;;;;;;6248078;28;20301;-67
2023/07/30 11:57:36;;;;;;;1.80;1.70;;;;;;;;;;6254149;28;20233;-67
2023/07/30 12:00:38;;;;;;;1.67;1.57;;;;;;;;;;6258978;28;20332;-67
2023/07/30 12:03:39;;;;;;;1.50;1.40;;;;;;;;;;6244945;28;20202;-67
2023/07/30 12:06:44;;;;;;;2.00;1.50;;;;;;;;;;6259659;28;20206;-67
2023/07/30 12:09:45;;;;;;;2.23;1.73;;;;;;;;;;6254001;28;20225;-67
2023/07/30 12:12:47;;;;;;;2.27;1.87;;;;;;;;;;6278036;28;20190;-67
2023/07/30 12:15:52;;;;;;;2.60;1.80;;;;;;;;;;6257898;28;20220;-67
2023/07/30 12:18:53;;;;;;;1.60;1.50;;;;;;;;;;6264100;28;20237;-67
2023/07/30 12:21:54;;;;;;;1.37;1.27;;;22.70;83.00;;;;;;6269512;28;20203;-68
2023/07/30 12:24:54;;;;;;;2.50;1.40;;;25.80;69.00;;;;;;6245095;28;20201;-68
2023/07/30 12:27:55;;;;;;;1.77;1.40;;;;;;;;;;6261294;28;20195;-68
2023/07/30 12:30:59;;;;;;;1.60;1.50;;;;;;;;;;6235602;28;20246;-68
2023/07/30 12:34:00;;;;;;;1.40;1.30;;;;;;;;;;6251622;28;20218;-68
2023/07/30 12:37:00;;;;;;;2.07;1.40;;;27.10;65.90;;;;;;6244100;28;20191;-67
2023/07/30 12:40:01;;;;;;;1.70;1.60;;;;;;;;;;6253339;28;20194;-68
2023/07/30 12:43:03;;;;;;;3.53;1.30;;;27.80;61.70;;;;;;6252193;28;20194;-67
2023/07/30 12:46:04;;;;;;;1.63;1.53;;;28.30;58.60;;;;;;6263929;28;20194;-67
2023/07/30 12:49:04;;;;;;;3.20;1.70;;;28.50;55.70;;;;;;6249565;28;20336;-67
2023/07/30 12:52:05;;;;;;;1.80;1.40;;;;;;;;;;6261682;28;20226;-67
2023/07/30 12:55:06;;;;;;;1.73;1.57;;;28.30;61.20;;;;;;6265899;28;20206;-67
2023/07/30 12:58:07;;;;;;;2.30;1.63;;;28.50;58.10;;;;;;6276040;28;20247;-67
2023/07/30 13:01:08;;;;;;;2.77;1.50;;;28.40;59.00;;;;;;6264523;28;20239;-67
2023/07/30 13:04:09;;;;;;;1.80;1.50;;;28.50;58.30;;;;;;6253960;28;20242;-67
2023/07/30 13:07:10;;;;;;;2.10;1.40;;;28.60;58.10;;;;;;6263197;28;20305;-67
2023/07/30 13:10:11;;;;;;;1.37;1.27;;;29.00;54.50;;;;;;6235764;28;20199;-67
2023/07/30 13:13:12;;;;;;;1.50;1.40;;;29.20;55.40;;;;;;6255805;28;20218;-67
2023/07/30 13:16:14;;;;;;;1.80;1.50;;;29.60;54.80;;;;;;6250814;28;20216;-67
2023/07/30 13:19:15;;;;;;;2.07;1.40;;;29.70;54.00;;;;;;6253546;28;20198;-67
2023/07/30 13:22:16;;;;;;;1.50;1.40;;;29.90;53.70;;;;;;6247337;28;20190;-67
2023/07/30 13:25:19;;;;;;;2.63;1.60;;;29.90;53.40;;;;;;6253751;28;20197;-67
2023/07/30 13:28:20;;;;;;;1.77;1.40;;;30.10;55.40;;;;;;6249039;28;20199;-67
2023/07/30 13:31:21;;;;;;;1.47;1.33;;;29.90;51.90;;;;;;6247883;28;20241;-67
2023/07/30 13:34:22;;;;;;;1.50;1.40;;;30.10;51.00;;;;;;6264645;28;20248;-67
2023/07/30 13:37:23;;;;;;;1.90;1.60;;;30.20;53.10;;;;;;6243214;28;20317;-67
2023/07/30 13:40:24;;;;;;;1.60;1.50;;;30.30;54.00;;;;;;6252018;28;20194;-67
2023/07/30 13:43:25;;;;;;;1.60;1.50;;;30.50;53.90;;;;;;6249596;28;20186;-67
2023/07/30 13:46:27;;;;;;;1.43;1.33;;;30.50;50.40;;;;;;6245733;28;20191;-67
2023/07/30 13:49:28;;;;;;;1.93;1.50;;;30.30;52.90;;;;;;6250988;28;20194;-67
2023/07/30 13:52:29;;;;;;;1.50;1.40;;;30.50;53.80;;;;;;6251174;28;20246;-67
2023/07/30 13:55:30;;;;;;;1.40;1.30;;;30.50;52.50;;;;;;6241982;28;20221;-67
2023/07/30 13:58:31;;;;;;;1.77;1.57;;;30.50;50.70;;;;;;6238711;28;20513;-67
2023/07/30 14:01:32;;;;;;;1.60;1.50;;;30.70;50.70;;;;;;6252722;28;20205;-67
2023/07/30 14:04:33;;;;;;;2.57;1.30;;;30.70;51.10;;;;;;6247184;28;20190;-67
2023/07/30 14:07:35;;;;;;;1.40;1.30;;;30.50;52.40;;;;;;6279981;28;20260;-67
2023/07/30 14:10:36;;;;;;;1.43;1.33;;;30.60;51.20;;;;;;6247062;28;20198;-67
2023/07/30 14:13:37;;;;;;;1.83;1.60;;;;;;;;;;6231293;28;20206;-67
2023/07/30 14:16:38;;;;;;;1.70;1.60;;;;;;;;;;6248331;28;20187;-67
2023/07/30 14:19:39;;;;;;;1.20;1.10;;;;;;;;;;6244786;28;20293;-67
2023/07/30 14:22:40;;;;;;;1.47;1.37;;;;;;;;;;6253077;28;20194;-67
2023/07/30 14:25:41;;;;;;;1.77;1.60;;;;;;;;;;6254707;28;20193;-67
2023/07/30 14:28:42;;;;;;;1.87;1.77;;;30.70;51.50;;;;;;6247726;28;20217;-67
2023/07/30 14:31:43;;;;;;;1.73;1.53;;;30.70;51.50;;;;;;6243737;28;20237;-67
2023/07/30 14:34:43;;;;;;;2.83;1.57;;;30.80;51.00;;;;;;6249023;28;20217;-67
2023/07/30 14:37:44;;;;;;;1.57;1.43;;;30.70;50.20;;;;;;6265674;28;20414;-67
2023/07/30 14:40:45;;;;;;;1.77;1.67;;;30.80;48.90;;;;;;6265391;28;20236;-67
2023/07/30 14:43:46;;;;;;;2.53;1.63;;;30.70;47.10;;;;;;6247943;28;20198;-67
2023/07/30 14:46:47;;;;;;;1.90;1.30;;;30.30;50.40;;;;;;6258351;28;20501;-67
2023/07/30 14:49:48;;;;;;;1.43;1.33;;;29.70;50.70;;;;;;6264803;28;20198;-65
2023/07/30 14:52:48;;;;;;;1.70;1.60;;;29.20;53.40;;;;;;6247537;28;20194;-65
2023/07/30 14:55:49;;;;;;;1.53;1.37;;;;;;;;;;6231126;28;20218;-67
2023/07/30 14:58:50;;;;;;;1.93;1.43;;;28.70;53.90;;;;;;6243858;28;20257;-66
2023/07/30 15:01:51;;;;;;;1.93;1.40;;;;;;;;;;6252333;28;20200;-67
2023/07/30 15:04:53;;;;;;;4.10;1.60;;;;;;;;;;6251014;28;20244;-66
2023/07/30 15:07:54;;;;;;;2.27;1.77;;;;;;;;;;6248859;28;20193;-66
2023/07/30 15:10:55;;;;;;;3.43;1.30;;;;;;;;;;6235953;28;20202;-66
2023/07/30 15:13:56;;;;;;;1.70;1.60;;;;;;;;;;6263676;28;20214;-66
2023/07/30 15:16:57;;;;;;;2.07;1.60;;;;;;;;;;6263600;28;20194;-66
2023/07/30 15:19:59;;;;;;;1.50;1.40;;;;;;;;;;6253881;28;20195;-66
2023/07/30 15:23:01;;;;;;;3.43;1.70;;;;;;;;;;6249558;28;20194;-66
2023/07/30 15:26:02;;;;;;;1.70;1.60;;;;;;;;;;6251024;28;20181;-66
2023/07/30 15:29:03;;;;;;;2.87;1.60;;;;;;;;;;6246112;28;20200;-66
2023/07/30 15:32:04;;;;;;;3.83;1.67;;;;;;;;;;6249567;28;20241;-66
2023/07/30 15:35:06;;;;;;;2.13;1.50;;;;;;;;;;6251857;28;20225;-66
2023/07/30 15:38:07;;;;;;;1.70;1.60;;;;;;;;;;6248321;28;20195;-66
2023/07/30 15:41:08;;;;;;;1.60;1.50;;;;;;;;;;6251806;28;20220;-66
2023/07/30 15:44:09;;;;;;;1.70;1.60;;;;;;;;;;6271515;28;20193;-66
2023/07/30 15:47:11;;;;;;;1.43;1.33;;;;;;;;;;6261996;28;20204;-66
2023/07/30 15:50:12;;;;;;;1.43;1.33;;;;;;;;;;6242308;28;20329;-66
2023/07/30 15:53:14;;;;;;;1.50;1.40;;;;;;;;;;6275413;28;20201;-66
2023/07/30 15:56:15;;;;;;;3.50;1.50;;;;;;;;;;6264858;28;20217;-66
2023/07/30 15:59:17;;;;;;;2.07;1.70;;;;;;;;;;6263094;28;20186;-66
2023/07/30 16:02:18;;;;;;;5.03;1.57;;;;;;;;;;6261329;28;20190;-66
2023/07/30 16:05:19;;;;;;;2.37;1.50;;;;;;;;;;6252266;28;20236;-66
2023/07/30 16:08:20;;;;;;;1.90;1.40;;;;;;;;;;6254313;28;20247;-66
2023/07/30 16:11:22;;;;;;;3.23;1.50;;;;;;;;;;6243869;28;20202;-66
2023/07/30 16:14:23;;;;;;;3.97;1.40;;;;;;;;;;6247281;28;20218;-66
2023/07/30 16:17:25;;;;;;;1.60;1.50;;;;;;;;;;6273904;28;20190;-66
2023/07/30 16:20:26;;;;;;;2.30;1.37;;;;;;;;;;6253624;28;20219;-66
2023/07/30 16:23:27;;;;;;;3.87;1.60;;;;;;;;;;6255795;28;20235;-66
2023/07/30 16:26:28;;;;;;;3.13;1.60;;;;;;;;;;6256990;28;20206;-66
2023/07/30 16:29:30;;;;;;;1.50;1.40;;;;;;;;;;6269491;28;20233;-66
2023/07/30 16:32:31;;;;;;;2.37;1.33;;;;;;;;;;6268496;28;20193;-66
2023/07/30 16:35:32;;;;;;;2.43;1.43;;;;;;;;;;6273056;28;20210;-66
2023/07/30 16:38:35;;;;;;;2.33;1.80;;;;;;;;;;6254251;28;20220;-66
2023/07/30 16:41:36;;;;;;;1.77;1.47;;;;;;;;;;6256993;28;20197;-66
2023/07/30 16:44:39;;;;;;;2.73;1.70;;;;;;;;;;6241571;28;20194;-66
2023/07/30 16:47:40;;;;;;;1.83;1.50;;;;;;;;;;6261093;28;20187;-66
2023/07/30 16:50:45;;;;;;;3.70;1.63;;;;;;;;;;6267449;28;20189;-66
2023/07/30 16:53:46;;;;;;;4.20;1.57;;;;;;;;;;6258130;28;20351;-66
2023/07/30 16:56:48;;;;;;;3.20;1.70;;;;;;;;;;6268152;28;20193;-66
2023/07/30 16:59:49;;;;;;;3.23;1.37;;;;;;;;;;6258479;28;20186;-66
2023/07/30 17:02:51;;;;;;;3.67;1.87;;;;;;;;;;6243413;28;20216;-66
2023/07/30 17:06:04;;;;;;;3.13;1.77;;;;;;;;;;6248590;28;20187;-66
2023/07/30 17:09:06;;;;;;;2.30;1.60;;;;;;;;;;6256654;28;20198;-66
2023/07/30 17:12:08;;;;;;;2.67;1.90;;;;;;;;;;6249166;28;20187;-66
2023/07/30 17:15:09;;;;;;;1.87;1.57;;;;;;;;;;6254979;28;20213;-66
2023/07/30 17:18:11;;;;;;;2.27;1.80;;;;;;;;;;6269160;28;20178;-66
2023/07/30 17:21:12;;;;;;;4.63;1.40;;;;;;;;;;6262985;28;20189;-66
2023/07/30 17:24:13;;;;;;;2.80;1.67;;;;;;;;;;6250316;28;20192;-66
2023/07/30 17:27:15;;;;;;;1.87;1.70;;;;;;;;;;6264379;28;20190;-66
2023/07/30 17:30:16;;;;;;;3.00;1.47;;;;;;;;;;6254039;28;20233;-66
2023/07/30 17:33:19;;;;;;;3.50;1.93;;;;;;;;;;6247335;28;20190;-66
2023/07/30 17:36:20;;;;;;;4.53;1.90;;;;;;;;;;6272979;28;20178;-66
2023/07/30 17:39:21;;;;;;;1.50;1.30;;;;;;;;;;6248990;28;20190;-66
2023/07/30 17:42:23;;;;;;;2.57;1.80;;;;;;;;;;6256450;28;20197;-66
2023/07/30 17:45:24;;;;;;;1.97;1.57;;;;;;;;;;6264604;28;20186;-66
2023/07/30 17:48:27;;;;;;;3.40;1.40;;;;;;;;;;6246307;28;20280;-66